Time;durP1;ratioP1;P1;durP2;ratioP2;P2;SDS_P1;SDS_P2;PMS_P1;PMS_P2;Temp;Humidity;BMP_temperature;BMP_pressure;BME280_temperature;BME280_humidity;BME280_pressure;Samples;Min_cycle;Max_cycle;Signal;HPM_P1;HPM_P2
2022/09/27 00:01:47;;;;;;;11.95;3.60;;;13.90;99.90;;;;;;5048514;28;20466;-84
2022/09/27 00:04:14;;;;;;;12.30;3.80;;;13.90;99.90;;;;;;5052122;28;20049;-84
2022/09/27 00:06:41;;;;;;;8.88;3.28;;;13.80;99.90;;;;;;5047582;28;20033;-84
2022/09/27 00:09:10;;;;;;;13.73;3.90;;;13.90;99.90;;;;;;5040854;28;20041;-83
2022/09/27 00:11:38;;;;;;;11.23;3.92;;;13.80;99.90;;;;;;5037850;28;20049;-84
2022/09/27 00:14:07;;;;;;;12.68;4.60;;;13.80;99.90;;;;;;5046907;28;20045;-83
2022/09/27 00:16:35;;;;;;;10.45;5.28;;;13.80;99.90;;;;;;5041350;28;20485;-83
2022/09/27 00:19:05;;;;;;;12.75;6.28;;;13.80;99.90;;;;;;5067799;28;20040;-83
2022/09/27 00:21:32;;;;;;;13.95;6.35;;;13.80;99.90;;;;;;5053631;28;20048;-84
2022/09/27 00:24:00;;;;;;;11.70;5.68;;;13.80;99.90;;;;;;5052837;28;20055;-84
2022/09/27 00:26:28;;;;;;;9.95;5.30;;;13.80;99.90;;;;;;5042607;28;20072;-83
2022/09/27 00:28:55;;;;;;;15.45;5.75;;;13.80;99.90;;;;;;5032622;28;20084;-83
2022/09/27 00:31:24;;;;;;;13.73;6.57;;;13.80;99.90;;;;;;5030634;28;20095;-84
2022/09/27 00:33:52;;;;;;;16.30;6.75;;;13.70;99.90;;;;;;5039307;28;20057;-83
2022/09/27 00:36:22;;;;;;;16.00;6.30;;;13.70;99.90;;;;;;5030958;28;20038;-84
2022/09/27 00:38:50;;;;;;;15.32;6.78;;;13.70;99.90;;;;;;5047606;28;20800;-84
2022/09/27 00:41:18;;;;;;;14.18;6.32;;;13.70;99.90;;;;;;5032249;28;20450;-83
2022/09/27 00:43:48;;;;;;;14.30;6.50;;;13.70;99.90;;;;;;5055193;28;20671;-84
2022/09/27 00:46:19;;;;;;;14.00;5.57;;;13.70;99.90;;;;;;5032314;28;20041;-84
2022/09/27 00:48:46;;;;;;;16.50;6.20;;;13.70;99.90;;;;;;5035489;28;20124;-84
2022/09/27 00:51:13;;;;;;;14.32;5.43;;;13.70;99.90;;;;;;5037009;28;20489;-84
2022/09/27 00:53:47;;;;;;;13.85;5.63;;;13.70;99.90;;;;;;5044049;28;20072;-83
2022/09/27 00:56:17;;;;;;;14.82;5.00;;;13.70;99.90;;;;;;5031957;28;20128;-84
2022/09/27 00:58:48;;;;;;;12.23;5.00;;;13.60;99.90;;;;;;5033294;28;20057;-83
2022/09/27 01:01:16;;;;;;;11.68;4.75;;;13.60;99.90;;;;;;5029425;28;20049;-84
2022/09/27 01:03:46;;;;;;;10.18;4.20;;;13.60;99.90;;;;;;5041924;28;20470;-84
2022/09/27 01:06:14;;;;;;;13.70;4.47;;;13.60;99.90;;;;;;5041919;28;20517;-84
2022/09/27 01:08:42;;;;;;;8.55;3.90;;;13.60;99.90;;;;;;5049312;28;20107;-83
2022/09/27 01:11:15;;;;;;;10.18;4.75;;;13.60;99.90;;;;;;5048594;28;20037;-84
2022/09/27 01:13:52;;;;;;;9.05;3.80;;;13.60;99.90;;;;;;5051727;28;20175;-83
2022/09/27 01:16:25;;;;;;;15.23;5.65;;;13.60;99.90;;;;;;5041644;28;20065;-84
2022/09/27 01:19:03;;;;;;;10.85;6.20;;;13.60;99.90;;;;;;5050162;28;20056;-83
2022/09/27 01:21:44;;;;;;;13.93;6.50;;;13.60;99.90;;;;;;5067208;28;20049;-84
2022/09/27 01:24:37;;;;;;;12.63;7.33;;;13.60;99.90;;;;;;5028441;28;20097;-83
2022/09/27 01:27:42;;;;;;;14.13;7.80;;;13.60;99.90;;;;;;5026122;28;20291;-83
2022/09/27 01:30:22;;;;;;;14.40;7.18;;;13.60;99.90;;;;;;5012652;28;20055;-83
2022/09/27 01:33:11;;;;;;;13.60;8.15;;;13.60;99.90;;;;;;5036410;28;20428;-84
2022/09/27 01:35:53;;;;;;;15.57;7.90;;;13.60;99.90;;;;;;5036968;28;20052;-84
2022/09/27 01:38:22;;;;;;;;;;;13.60;99.90;;;;;;5066190;28;20040;-83
2022/09/27 01:40:53;;;;;;;14.25;7.88;;;13.60;99.90;;;;;;5042274;28;19921;-84
2022/09/27 01:44:00;;;;;;;15.68;7.93;;;13.60;99.90;;;;;;5052338;28;20056;-83
2022/09/27 01:46:36;;;;;;;15.00;7.70;;;13.50;99.90;;;;;;5047204;28;20048;-84
2022/09/27 01:49:18;;;;;;;11.45;6.75;;;13.60;99.90;;;;;;5031881;28;20505;-84
2022/09/27 01:51:48;;;;;;;15.35;7.20;;;13.50;99.90;;;;;;5032477;28;20060;-83
2022/09/27 01:54:19;;;;;;;16.10;7.13;;;13.50;99.90;;;;;;5028511;28;20130;-83
2022/09/27 01:56:50;;;;;;;16.05;7.05;;;13.50;99.90;;;;;;5045336;28;20072;-84
2022/09/27 01:59:24;;;;;;;15.00;6.85;;;13.50;99.90;;;;;;5029611;28;20057;-84
2022/09/27 02:02:07;;;;;;;18.55;6.97;;;13.50;99.90;;;;;;5040493;28;20110;-83
2022/09/27 02:04:56;;;;;;;11.27;6.10;;;13.50;99.90;;;;;;5039453;28;20526;-84
2022/09/27 02:07:26;;;;;;;11.68;6.63;;;13.50;99.90;;;;;;5031241;28;20091;-84
2022/09/27 02:09:58;;;;;;;14.10;6.05;;;13.50;99.90;;;;;;5031385;28;20055;-83
2022/09/27 02:12:40;;;;;;;13.73;6.78;;;13.50;99.90;;;;;;5031204;28;20055;-83
2022/09/27 02:15:14;;;;;;;11.90;6.38;;;13.50;99.90;;;;;;5029918;28;20425;-83
2022/09/27 02:17:47;;;;;;;12.10;6.10;;;13.50;99.90;;;;;;5037553;28;20040;-83
2022/09/27 02:20:20;;;;;;;11.65;5.72;;;13.50;99.90;;;;;;5037940;28;20068;-83
2022/09/27 02:22:55;;;;;;;11.85;5.72;;;13.50;99.90;;;;;;5043655;28;20749;-83
2022/09/27 02:25:26;;;;;;;16.95;5.40;;;13.50;99.90;;;;;;5022785;28;20072;-83
2022/09/27 02:27:59;;;;;;;11.80;5.35;;;13.50;99.90;;;;;;5031394;28;20056;-84
2022/09/27 02:30:30;;;;;;;12.70;5.57;;;13.50;99.90;;;;;;5032425;28;20048;-84
2022/09/27 02:33:09;;;;;;;11.88;5.22;;;13.50;99.90;;;;;;5044367;28;20049;-83
2022/09/27 02:35:36;;;;;;;10.63;4.88;;;13.50;99.90;;;;;;5029398;28;20072;-84
2022/09/27 02:38:05;;;;;;;9.23;5.30;;;13.50;99.90;;;;;;5041714;28;20060;-84
2022/09/27 02:40:34;;;;;;;10.70;5.80;;;13.50;99.90;;;;;;5048310;28;20524;-83
2022/09/27 02:43:03;;;;;;;10.80;6.13;;;13.50;99.90;;;;;;5063180;28;20049;-84
2022/09/27 02:45:33;;;;;;;13.27;6.45;;;13.50;99.90;;;;;;5029868;28;20132;-84
2022/09/27 02:48:10;;;;;;;16.45;7.80;;;13.50;99.90;;;;;;5011515;28;20050;-83
2022/09/27 02:50:51;;;;;;;16.48;7.82;;;13.50;99.90;;;;;;5012394;28;20065;-83
2022/09/27 02:53:50;;;;;;;13.85;7.22;;;13.50;99.90;;;;;;5056345;28;20045;-84
2022/09/27 02:56:51;;;;;;;10.70;6.65;;;13.50;99.90;;;;;;5043008;28;20049;-84
2022/09/27 02:59:48;;;;;;;14.32;7.18;;;13.40;99.90;;;;;;5028865;28;20057;-84
2022/09/27 03:02:42;;;;;;;13.65;6.63;;;13.40;99.90;;;;;;5043850;28;20044;-84
2022/09/27 03:05:39;;;;;;;13.60;7.03;;;13.40;99.90;;;;;;5030053;28;20118;-84
2022/09/27 03:08:07;;;;;;;15.15;7.40;;;13.50;99.90;;;;;;5031881;28;20055;-84
2022/09/27 03:10:34;;;;;;;18.58;7.50;;;13.40;99.90;;;;;;5028533;28;20045;-84
2022/09/27 03:13:03;;;;;;;16.40;6.75;;;13.40;99.90;;;;;;5035898;28;20047;-84
2022/09/27 03:15:30;;;;;;;14.75;6.93;;;13.50;99.90;;;;;;5029258;28;20044;-84
2022/09/27 03:18:00;;;;;;;18.90;7.10;;;13.40;99.90;;;;;;5049290;28;20041;-84
2022/09/27 03:20:48;;;;;;;12.50;7.15;;;13.40;99.90;;;;;;5049425;28;20267;-84
2022/09/27 03:23:19;;;;;;;15.15;7.72;;;13.40;99.90;;;;;;5036756;28;20046;-84
2022/09/27 03:25:46;;;;;;;10.93;7.25;;;13.40;99.90;;;;;;5043142;28;20426;-84
2022/09/27 03:28:13;;;;;;;16.27;6.93;;;13.40;99.90;;;;;;5046037;28;20041;-84
2022/09/27 03:30:42;;;;;;;16.30;7.43;;;13.40;99.90;;;;;;5028221;28;20045;-84
2022/09/27 03:33:10;;;;;;;14.70;5.72;;;13.40;99.90;;;;;;5024633;28;20721;-84
2022/09/27 03:35:48;;;;;;;10.40;5.15;;;13.30;99.90;;;;;;5043366;28;20074;-84
2022/09/27 03:38:15;;;;;;;12.00;5.38;;;13.30;99.90;;;;;;5030917;28;20063;-84
2022/09/27 03:40:43;;;;;;;11.48;6.20;;;13.30;99.90;;;;;;5030673;28;20049;-84
2022/09/27 03:43:11;;;;;;;13.77;5.70;;;13.20;99.90;;;;;;5040146;28;20124;-84
2022/09/27 03:45:38;;;;;;;9.57;4.90;;;13.30;99.90;;;;;;5029285;28;20252;-84
2022/09/27 03:48:08;;;;;;;11.05;4.88;;;13.30;99.90;;;;;;5029555;28;20048;-84
2022/09/27 03:50:35;;;;;;;10.75;5.45;;;13.20;99.90;;;;;;5031627;28;20612;-87
2022/09/27 03:53:04;;;;;;;14.80;6.88;;;13.20;99.90;;;;;;5033835;28;20446;-86
2022/09/27 03:55:31;;;;;;;17.17;6.63;;;13.20;99.90;;;;;;5033649;28;20052;-86
2022/09/27 03:57:58;;;;;;;14.75;7.20;;;13.20;99.90;;;;;;5034186;28;20049;-85
2022/09/27 04:00:25;;;;;;;15.02;8.10;;;13.20;99.90;;;;;;5034196;28;20072;-85
2022/09/27 04:02:52;;;;;;;19.23;7.95;;;13.20;99.90;;;;;;5033842;28;20695;-85
2022/09/27 04:05:23;;;;;;;14.23;9.15;;;13.20;99.90;;;;;;5046717;28;20051;-84
2022/09/27 04:07:51;;;;;;;18.88;8.90;;;13.30;99.90;;;;;;5037718;28;20049;-85
2022/09/27 04:10:21;;;;;;;14.65;8.65;;;13.20;99.90;;;;;;5045604;28;20113;-85
2022/09/27 04:12:49;;;;;;;16.73;8.50;;;13.20;99.90;;;;;;5050639;28;20458;-85
2022/09/27 04:15:16;;;;;;;16.58;9.13;;;13.20;99.90;;;;;;5042200;28;20539;-86
2022/09/27 04:17:49;;;;;;;14.43;8.77;;;13.20;99.90;;;;;;5049830;28;20061;-91
2022/09/27 04:20:36;;;;;;;13.80;8.82;;;13.10;99.90;;;;;;5037654;28;20068;-87
2022/09/27 04:23:09;;;;;;;16.42;8.98;;;13.10;99.90;;;;;;5032165;28;20068;-87
2022/09/27 04:25:41;;;;;;;17.92;8.93;;;13.10;99.90;;;;;;5033006;28;20495;-87
2022/09/27 04:28:16;;;;;;;12.23;8.65;;;13.10;99.90;;;;;;5033596;28;20061;-87
2022/09/27 04:30:43;;;;;;;15.70;8.50;;;13.00;99.90;;;;;;5038466;28;20052;-86
2022/09/27 04:33:13;;;;;;;16.88;8.88;;;13.00;99.90;;;;;;5047800;28;20049;-86
2022/09/27 04:38:27;;;;;;;13.75;8.07;;;13.10;99.90;;;;;;5040317;28;20044;-81
2022/09/27 04:41:00;;;;;;;16.02;8.25;;;13.10;99.90;;;;;;5038143;28;20509;-84
2022/09/27 04:43:29;;;;;;;9.85;6.97;;;13.10;99.90;;;;;;5025905;28;20056;-82
2022/09/27 04:45:56;;;;;;;12.48;6.78;;;13.10;99.90;;;;;;5030005;28;20053;-81
2022/09/27 04:48:23;;;;;;;9.93;7.10;;;13.00;99.90;;;;;;5031128;28;20072;-81
2022/09/27 04:50:57;;;;;;;11.20;7.15;;;13.00;99.90;;;;;;5033722;28;20737;-81
2022/09/27 04:53:24;;;;;;;16.27;7.57;;;13.00;99.90;;;;;;5041925;28;20136;-80
2022/09/27 04:55:53;;;;;;;25.00;7.90;;;13.00;99.90;;;;;;5032342;28;20144;-80
2022/09/27 04:58:21;;;;;;;12.00;7.25;;;13.00;99.90;;;;;;5032983;28;20378;-81
2022/09/27 05:00:51;;;;;;;14.05;6.78;;;13.00;99.90;;;;;;5032793;28;20057;-80
2022/09/27 05:03:40;;;;;;;11.02;6.20;;;13.00;99.90;;;;;;5007289;28;20053;-81
2022/09/27 05:06:12;;;;;;;9.60;5.55;;;13.00;99.90;;;;;;5032224;28;20036;-81
2022/09/27 05:08:39;;;;;;;12.35;5.70;;;12.90;99.90;;;;;;5030982;28;20047;-81
2022/09/27 05:11:18;;;;;;;12.52;4.70;;;12.90;99.90;;;;;;5050327;28;20052;-81
2022/09/27 05:14:12;;;;;;;12.50;4.32;;;12.90;99.90;;;;;;5040510;28;20055;-81
2022/09/27 05:17:00;;;;;;;8.77;3.88;;;12.90;99.90;;;;;;5006246;28;20045;-81
2022/09/27 05:19:27;;;;;;;11.95;3.85;;;12.90;99.90;;;;;;5047976;28;20080;-81
2022/09/27 05:22:03;;;;;;;11.00;3.58;;;12.90;99.90;;;;;;5044197;28;20132;-82
2022/09/27 05:24:32;;;;;;;9.23;3.10;;;12.90;99.90;;;;;;5048985;28;20037;-82
2022/09/27 05:26:59;;;;;;;9.75;3.63;;;12.90;99.90;;;;;;5032787;28;20572;-81
2022/09/27 05:29:28;;;;;;;7.03;2.75;;;12.90;99.90;;;;;;5032272;28;20056;-82
2022/09/27 05:32:15;;;;;;;8.50;2.65;;;12.90;99.90;;;;;;5029024;28;20060;-80
2022/09/27 05:34:44;;;;;;;6.70;2.30;;;12.80;99.90;;;;;;5031879;28;20049;-80
2022/09/27 05:37:11;;;;;;;9.52;3.33;;;12.90;99.90;;;;;;5032270;28;20563;-81
2022/09/27 05:39:40;;;;;;;12.35;3.95;;;12.90;99.90;;;;;;5030751;28;20102;-80
2022/09/27 05:42:09;;;;;;;12.20;3.92;;;12.80;99.90;;;;;;5029551;28;20592;-81
2022/09/27 05:44:38;;;;;;;9.50;4.28;;;12.80;99.90;;;;;;5031381;28;20140;-81
2022/09/27 05:47:06;;;;;;;11.77;3.78;;;12.80;99.90;;;;;;5031193;28;20037;-81
2022/09/27 05:49:34;;;;;;;8.95;3.55;;;12.80;99.90;;;;;;5030230;28;20072;-81
2022/09/27 05:52:03;;;;;;;7.95;3.00;;;12.80;99.90;;;;;;5036553;28;20045;-81
2022/09/27 05:54:30;;;;;;;9.15;3.42;;;12.80;99.90;;;;;;5031771;28;20070;-81
2022/09/27 05:56:59;;;;;;;10.80;3.00;;;12.70;99.90;;;;;;5031031;22;20092;-78
2022/09/27 05:59:46;;;;;;;6.90;2.58;;;12.70;99.90;;;;;;5013080;28;20240;-78
2022/09/27 06:02:45;;;;;;;6.43;2.60;;;12.80;99.90;;;;;;5009570;28;20042;-78
2022/09/27 06:05:34;;;;;;;6.25;2.55;;;12.80;99.90;;;;;;4992951;28;20048;-78
2022/09/27 06:08:24;;;;;;;11.35;3.45;;;12.70;99.90;;;;;;4981594;28;20046;-78
2022/09/27 06:11:00;;;;;;;11.52;2.78;;;12.70;99.90;;;;;;4976196;28;20150;-78
2022/09/27 06:13:28;;;;;;;9.60;2.88;;;12.70;99.90;;;;;;4981150;28;20189;-78
2022/09/27 06:15:57;;;;;;;10.93;3.10;;;12.70;99.90;;;;;;4995871;28;20066;-78
2022/09/27 06:18:24;;;;;;;11.82;3.17;;;12.70;99.90;;;;;;4989489;28;20383;-78
2022/09/27 06:20:51;;;;;;;8.15;3.42;;;12.70;99.90;;;;;;5004694;28;20053;-79
2022/09/27 06:23:21;;;;;;;8.82;3.38;;;12.70;99.90;;;;;;4984509;28;20034;-78
2022/09/27 06:25:50;;;;;;;12.70;3.58;;;12.70;99.90;;;;;;4980487;28;20501;-78
2022/09/27 06:28:50;;;;;;;10.40;3.58;;;12.70;99.90;;;;;;4989834;28;20364;-78
2022/09/27 06:31:18;;;;;;;9.30;3.20;;;12.70;99.90;;;;;;4996761;28;20046;-77
2022/09/27 06:33:52;;;;;;;7.60;3.40;;;12.70;99.90;;;;;;4989217;28;20606;-78
2022/09/27 06:36:20;;;;;;;10.48;3.63;;;12.70;99.90;;;;;;4987406;28;20061;-78
2022/09/27 06:38:48;;;;;;;9.48;3.78;;;12.70;99.90;;;;;;4994076;28;20041;-78
2022/09/27 06:41:21;;;;;;;12.15;4.20;;;12.70;99.90;;;;;;4994150;28;20054;-78
2022/09/27 06:44:04;;;;;;;10.77;3.95;;;12.80;99.90;;;;;;4989097;28;20085;-77
2022/09/27 06:46:51;;;;;;;9.95;3.88;;;12.80;99.90;;;;;;4989905;28;20143;-77
2022/09/27 06:49:37;;;;;;;9.65;3.70;;;12.80;99.90;;;;;;4979657;28;20131;-77
2022/09/27 06:52:04;;;;;;;13.23;3.40;;;12.80;99.90;;;;;;4986628;28;20079;-78
2022/09/27 06:54:31;;;;;;;9.25;3.30;;;12.80;99.90;;;;;;4986218;28;20053;-78
2022/09/27 06:56:59;;;;;;;11.27;3.20;;;12.80;99.90;;;;;;4981772;28;20050;-78
2022/09/27 07:02:31;;;;;;;8.55;3.03;;;12.80;99.90;;;;;;4989903;28;20869;-78
2022/09/27 07:05:12;;;;;;;9.40;2.80;;;12.70;99.90;;;;;;4977920;28;20046;-78
2022/09/27 07:07:58;;;;;;;8.48;3.03;;;12.70;99.90;;;;;;4979651;28;20189;-77
2022/09/27 07:10:27;;;;;;;7.10;2.65;;;12.70;99.90;;;;;;4978743;28;20046;-78
2022/09/27 07:12:55;;;;;;;9.52;2.53;;;12.80;99.90;;;;;;4978816;28;20046;-78
2022/09/27 07:15:23;;;;;;;7.30;2.80;;;12.80;99.90;;;;;;4974866;28;20392;-84
2022/09/27 07:17:59;;;;;;;8.27;3.13;;;12.80;99.90;;;;;;4989348;28;20073;-77
2022/09/27 07:20:29;;;;;;;8.98;2.53;;;12.80;99.90;;;;;;4978278;28;20054;-78
2022/09/27 07:22:56;;;;;;;11.18;2.70;;;12.80;99.90;;;;;;4987957;28;20658;-78
2022/09/27 07:25:24;;;;;;;10.73;2.70;;;12.80;99.90;;;;;;4982254;28;20053;-78
2022/09/27 07:27:52;;;;;;;5.90;2.25;;;12.80;99.90;;;;;;4989821;28;20525;-78
2022/09/27 07:30:20;;;;;;;6.57;2.58;;;12.80;99.90;;;;;;4981237;28;20510;-78
2022/09/27 07:32:47;;;;;;;8.35;2.90;;;12.90;99.90;;;;;;4982048;28;20058;-78
2022/09/27 07:35:16;;;;;;;9.02;2.92;;;12.90;99.90;;;;;;4978962;28;20125;-78
2022/09/27 07:37:44;;;;;;;8.40;3.45;;;12.90;99.90;;;;;;4985759;28;20484;-78
2022/09/27 07:40:12;;;;;;;6.57;3.22;;;12.90;99.90;;;;;;4990656;28;20046;-78
2022/09/27 07:42:40;;;;;;;11.00;3.92;;;12.90;99.90;;;;;;4979402;28;20061;-78
2022/09/27 07:45:10;;;;;;;10.35;3.80;;;12.90;99.90;;;;;;4988697;28;20800;-78
2022/09/27 07:47:58;;;;;;;9.05;3.53;;;13.00;99.90;;;;;;4983600;28;20054;-78
2022/09/27 07:50:46;;;;;;;8.55;3.22;;;13.00;99.90;;;;;;4994476;28;20549;-78
2022/09/27 07:53:36;;;;;;;8.40;2.90;;;13.00;99.90;;;;;;4986177;28;20133;-78
2022/09/27 07:56:24;;;;;;;9.10;3.00;;;13.10;99.90;;;;;;4991543;28;20117;-78
2022/09/27 07:58:51;;;;;;;4.80;2.20;;;13.10;99.90;;;;;;4984346;28;20042;-78
2022/09/27 08:01:20;;;;;;;10.45;2.83;;;13.10;99.90;;;;;;4983292;28;20384;-78
2022/09/27 08:03:48;;;;;;;5.82;2.05;;;13.10;99.90;;;;;;4981815;28;20407;-78
2022/09/27 08:06:17;;;;;;;7.13;2.72;;;13.10;99.90;;;;;;4979634;28;20658;-78
2022/09/27 08:08:46;;;;;;;6.07;1.98;;;13.10;99.90;;;;;;4995480;28;20459;-78
2022/09/27 08:11:15;;;;;;;6.50;1.90;;;13.10;99.90;;;;;;5009671;28;20050;-77
2022/09/27 08:13:43;;;;;;;6.85;2.00;;;13.10;99.90;;;;;;4989417;28;20124;-77
2022/09/27 08:16:11;;;;;;;6.43;2.67;;;13.10;99.90;;;;;;4982141;28;20065;-77
2022/09/27 08:19:04;;;;;;;4.70;1.90;;;13.10;99.90;;;;;;4987688;28;20498;-78
2022/09/27 08:21:58;;;;;;;4.80;1.92;;;13.20;99.90;;;;;;4980699;28;20050;-78
2022/09/27 08:24:29;;;;;;;7.53;2.25;;;13.20;99.90;;;;;;4990920;28;20070;-78
2022/09/27 08:27:14;;;;;;;10.10;2.58;;;13.10;99.90;;;;;;4995274;28;20065;-78
2022/09/27 08:29:50;;;;;;;6.22;2.25;;;13.10;99.90;;;;;;4979196;28;20054;-78
2022/09/27 08:32:18;;;;;;;7.78;2.60;;;13.20;99.90;;;;;;4985714;28;20053;-78
2022/09/27 08:34:45;;;;;;;5.22;2.40;;;13.20;99.90;;;;;;4987696;28;20116;-78
2022/09/27 08:37:13;;;;;;;5.45;2.30;;;13.30;99.90;;;;;;4988190;28;20062;-79
2022/09/27 08:39:40;;;;;;;6.60;2.60;;;13.30;99.90;;;;;;4987523;28;20054;-80
2022/09/27 08:42:16;;;;;;;5.25;2.35;;;13.30;99.90;;;;;;4988780;28;20042;-79
2022/09/27 08:44:48;;;;;;;5.95;2.00;;;13.30;99.90;;;;;;4983244;28;20191;-79
2022/09/27 08:47:21;;;;;;;4.97;2.00;;;13.40;99.90;;;;;;4976721;28;20078;-79
2022/09/27 08:49:53;;;;;;;12.77;2.70;;;13.40;99.90;;;;;;4990405;28;20047;-79
2022/09/27 08:52:23;;;;;;;7.00;2.30;;;13.50;99.90;;;;;;4979589;28;20050;-79
2022/09/27 08:54:50;;;;;;;4.57;1.83;;;13.40;99.90;;;;;;4981220;28;20104;-79
2022/09/27 08:57:18;;;;;;;8.07;2.65;;;13.50;99.90;;;;;;4990382;28;20535;-79
2022/09/27 08:59:50;;;;;;;7.25;2.30;;;13.50;99.90;;;;;;4984174;28;20073;-80
2022/09/27 09:02:19;;;;;;;6.60;2.40;;;13.50;99.90;;;;;;4982259;28;20424;-79
2022/09/27 09:04:50;;;;;;;7.22;2.50;;;13.50;99.90;;;;;;4986415;28;20125;-79
2022/09/27 09:07:38;;;;;;;6.68;2.80;;;13.50;99.90;;;;;;4989081;28;20054;-80
2022/09/27 09:12:45;;;;;;;5.05;2.42;;;13.50;99.90;;;;;;4984132;28;20046;-79
2022/09/27 09:13:13;;;;;;;8.10;3.08;;;13.40;99.90;;;;;;4988698;28;20700;-79
2022/09/27 09:15:56;;;;;;;4.43;2.55;;;13.50;99.90;;;;;;4986814;28;20077;-79
2022/09/27 09:18:39;;;;;;;9.65;2.72;;;13.50;99.90;;;;;;4982842;28;20046;-79
2022/09/27 09:21:25;;;;;;;5.57;2.55;;;13.50;99.90;;;;;;4983272;28;20047;-79
2022/09/27 09:24:23;;;;;;;4.43;2.08;;;13.50;99.90;;;;;;4985322;28;20054;-79
2022/09/27 09:26:57;;;;;;;5.30;2.33;;;13.50;99.90;;;;;;4982779;28;20477;-79
2022/09/27 09:29:36;;;;;;;5.88;2.40;;;13.50;99.90;;;;;;4986907;28;20064;-79
2022/09/27 09:32:08;;;;;;;7.22;1.70;;;13.40;99.90;;;;;;4983227;28;20178;-79
2022/09/27 09:34:38;;;;;;;6.07;1.77;;;13.40;99.90;;;;;;4975707;28;20053;-79
2022/09/27 09:37:11;;;;;;;4.43;1.80;;;13.40;99.90;;;;;;4982556;28;20043;-80
2022/09/27 09:39:44;;;;;;;5.45;1.73;;;13.40;99.90;;;;;;4987939;28;20121;-79
2022/09/27 09:42:14;;;;;;;7.45;1.80;;;13.40;99.90;;;;;;4994016;28;20046;-80
2022/09/27 09:44:47;;;;;;;5.20;2.00;;;13.40;99.90;;;;;;4997759;28;20054;-79
2022/09/27 09:47:28;;;;;;;5.50;1.90;;;13.40;99.90;;;;;;5010827;28;20062;-80
2022/09/27 09:49:59;;;;;;;5.07;1.92;;;13.40;99.90;;;;;;4982154;28;20046;-80
2022/09/27 09:52:32;;;;;;;4.50;2.10;;;13.50;99.90;;;;;;4980606;28;20172;-80
2022/09/27 09:55:06;;;;;;;7.28;2.72;;;13.40;99.90;;;;;;4973919;28;20050;-80
2022/09/27 09:57:39;;;;;;;5.68;2.67;;;13.40;99.90;;;;;;4981829;28;20049;-80
2022/09/27 10:00:15;;;;;;;8.02;3.17;;;13.50;99.90;;;;;;4999491;28;20122;-80
2022/09/27 10:02:47;;;;;;;7.18;3.70;;;13.50;99.90;;;;;;4995133;28;20047;-80
2022/09/27 10:05:21;;;;;;;7.40;2.80;;;13.60;99.90;;;;;;4986368;28;20042;-80
2022/09/27 10:07:54;;;;;;;4.35;2.33;;;13.60;99.90;;;;;;4991258;28;20521;-79
2022/09/27 10:10:23;;;;;;;6.10;2.53;;;13.60;99.90;;;;;;4997278;28;20110;-79
2022/09/27 10:13:15;;;;;;;6.25;3.00;;;13.60;99.90;;;;;;4989348;28;20069;-79
2022/09/27 10:15:44;;;;;;;5.13;2.70;;;13.60;99.90;;;;;;4987785;28;20046;-79
2022/09/27 10:18:15;;;;;;;6.65;2.72;;;13.60;99.90;;;;;;4994086;28;20091;-79
2022/09/27 10:20:48;;;;;;;6.95;2.80;;;13.70;99.90;;;;;;4998840;28;20855;-80
2022/09/27 10:23:18;;;;;;;7.32;2.75;;;13.60;99.90;;;;;;4985535;28;20056;-80
2022/09/27 10:26:07;;;;;;;3.63;2.15;;;13.60;99.90;;;;;;4972784;28;20073;-80
2022/09/27 10:28:53;;;;;;;6.07;2.22;;;13.60;99.90;;;;;;4995452;28;20050;-80
2022/09/27 10:31:36;;;;;;;7.38;2.67;;;13.70;99.90;;;;;;4988826;28;20474;-80
2022/09/27 10:34:25;;;;;;;6.18;3.05;;;13.70;99.90;;;;;;4988470;28;20069;-77
2022/09/27 10:37:06;;;;;;;4.60;2.50;;;13.70;99.90;;;;;;4987063;28;20463;-81
2022/09/27 10:39:34;;;;;;;5.18;2.63;;;13.70;99.90;;;;;;4989766;28;20048;-85
2022/09/27 10:42:04;;;;;;;7.05;2.75;;;13.70;99.90;;;;;;4988475;28;20046;-81
2022/09/27 10:44:39;;;;;;;6.30;2.60;;;13.80;99.90;;;;;;4989226;28;20060;-79
2022/09/27 10:47:30;;;;;;;8.25;2.60;;;13.70;99.90;;;;;;4991995;28;20128;-81
2022/09/27 10:50:20;;;;;;;5.55;2.33;;;13.80;99.90;;;;;;4988324;28;20058;-82
2022/09/27 10:53:04;;;;;;;6.05;2.40;;;13.80;99.90;;;;;;4977224;28;20054;-83
2022/09/27 10:55:34;;;;;;;16.15;2.80;;;13.90;99.90;;;;;;4987663;28;20080;-83
2022/09/27 10:58:03;;;;;;;8.18;2.75;;;13.90;99.90;;;;;;4993152;28;20054;-82
2022/09/27 11:00:32;;;;;;;4.88;2.25;;;14.00;99.90;;;;;;5004123;28;20140;-83
2022/09/27 11:03:01;;;;;;;6.35;2.45;;;14.00;99.90;;;;;;4991512;28;20137;-83
2022/09/27 11:05:34;;;;;;;5.03;2.00;;;14.00;99.90;;;;;;4986983;28;20042;-83
2022/09/27 11:08:07;;;;;;;4.95;1.92;;;14.00;99.90;;;;;;4991002;28;20128;-82
2022/09/27 11:10:45;;;;;;;4.97;2.60;;;14.10;99.90;;;;;;4990109;28;20124;-83
2022/09/27 11:13:15;;;;;;;7.95;2.30;;;14.10;99.90;;;;;;4987638;28;20097;-82
2022/09/27 11:16:09;;;;;;;5.07;2.20;;;14.10;99.90;;;;;;4987283;28;20153;-82
2022/09/27 11:18:45;;;;;;;4.60;2.00;;;14.10;99.90;;;;;;4990624;28;20503;-82
2022/09/27 11:21:22;;;;;;;4.25;1.70;;;14.10;99.90;;;;;;4981511;28;20077;-82
2022/09/27 11:24:06;;;;;;;3.78;2.00;;;14.20;99.90;;;;;;4980247;28;20078;-81
2022/09/27 11:26:41;;;;;;;5.25;1.80;;;14.20;99.90;;;;;;4985959;28;20050;-82
2022/09/27 11:29:22;;;;;;;6.72;1.92;;;14.20;99.90;;;;;;4997463;28;20045;-81
2022/09/27 11:32:29;;;;;;;5.43;2.55;;;14.20;99.90;;;;;;4970130;28;20058;-82
2022/09/27 11:35:20;;;;;;;4.35;2.00;;;14.20;99.90;;;;;;4987292;28;20042;-82
2022/09/27 11:37:53;;;;;;;3.75;1.92;;;14.10;99.90;;;;;;4990006;28;20156;-82
2022/09/27 11:40:30;;;;;;;5.15;2.40;;;14.10;99.90;;;;;;4986953;28;20532;-82
2022/09/27 11:43:19;;;;;;;6.68;2.60;;;14.10;99.90;;;;;;4985154;28;20070;-81
2022/09/27 11:45:55;;;;;;;4.65;2.60;;;14.10;99.90;;;;;;4986230;28;20058;-81
2022/09/27 11:48:32;;;;;;;6.88;2.72;;;14.10;99.90;;;;;;4987612;28;20706;-81
2022/09/27 11:51:18;;;;;;;5.75;2.95;;;14.10;99.90;;;;;;4981054;28;20068;-81
2022/09/27 11:54:14;;;;;;;6.07;2.70;;;14.10;99.90;;;;;;4982551;28;20105;-82
2022/09/27 11:56:50;;;;;;;6.18;3.10;;;14.10;99.90;;;;;;4987874;28;20057;-82
2022/09/27 11:59:39;;;;;;;5.50;2.90;;;14.10;99.90;;;;;;4990411;28;20398;-81
2022/09/27 12:02:22;;;;;;;6.68;3.33;;;14.30;99.90;;;;;;5008782;28;20093;-82
2022/09/27 12:05:01;;;;;;;5.45;2.78;;;14.30;99.90;;;;;;4987126;28;20585;-81
2022/09/27 12:10:04;;;;;;;5.18;2.25;;;14.40;99.90;;;;;;4966307;28;20145;-81
2022/09/27 12:12:34;;;;;;;5.90;2.97;;;14.30;99.90;;;;;;4970014;28;20089;-81
2022/09/27 12:15:03;;;;;;;4.85;2.50;;;14.40;99.90;;;;;;4977061;28;20070;-81
2022/09/27 12:17:40;;;;;;;4.65;2.83;;;14.40;99.90;;;;;;4981943;28;20125;-81
2022/09/27 12:20:14;;;;;;;5.93;3.05;;;14.40;99.90;;;;;;4942009;28;20069;-80
2022/09/27 12:22:52;;;;;;;6.25;2.90;;;14.30;99.90;;;;;;4956561;28;20051;-81
2022/09/27 12:25:24;;;;;;;7.15;3.20;;;14.40;99.90;;;;;;4971248;28;20042;-81
2022/09/27 12:28:03;;;;;;;4.90;2.88;;;14.30;99.90;;;;;;4963621;28;20142;-81
2022/09/27 12:30:31;;;;;;;7.68;3.25;;;14.30;99.90;;;;;;4959571;28;20051;-81
2022/09/27 12:33:06;;;;;;;6.18;3.45;;;14.20;99.90;;;;;;4980343;28;20061;-81
2022/09/27 12:35:39;;;;;;;8.75;4.07;;;14.20;99.90;;;;;;4964681;28;20546;-80
2022/09/27 12:38:11;;;;;;;7.97;3.67;;;14.20;99.90;;;;;;4975419;28;20085;-80
2022/09/27 12:40:40;;;;;;;7.57;3.50;;;14.10;99.90;;;;;;4991121;28;20058;-80
2022/09/27 12:43:16;;;;;;;6.60;3.00;;;14.10;99.90;;;;;;4987843;28;20415;-80
2022/09/27 12:46:21;;;;;;;7.38;3.45;;;14.00;99.90;;;;;;4974558;28;20055;-80
2022/09/27 12:48:59;;;;;;;9.43;3.42;;;14.00;99.90;;;;;;4968817;28;20085;-80
2022/09/27 12:51:33;;;;;;;8.45;3.60;;;14.00;99.90;;;;;;4987841;28;20101;-80
2022/09/27 12:54:23;;;;;;;8.35;4.10;;;14.00;99.90;;;;;;4965039;28;20055;-80
2022/09/27 12:56:56;;;;;;;6.43;3.90;;;14.00;99.90;;;;;;4971560;28;20097;-82
2022/09/27 12:59:46;;;;;;;9.20;4.82;;;14.00;99.90;;;;;;4985726;28;20101;-80
2022/09/27 13:02:51;;;;;;;11.50;4.82;;;13.90;99.90;;;;;;4986885;28;20055;-79
2022/09/27 13:05:43;;;;;;;11.20;4.22;;;13.90;99.90;;;;;;4956675;28;20046;-81
2022/09/27 13:08:30;;;;;;;7.75;3.50;;;13.90;99.90;;;;;;4993069;28;20140;-82
2022/09/27 13:14:57;;;;;;;5.65;2.75;;;13.80;99.90;;;;;;4979304;28;20125;-81
2022/09/27 13:17:53;;;;;;;5.70;2.70;;;13.80;99.90;;;;;;4958259;28;20137;-81
2022/09/27 13:20:48;;;;;;;5.90;2.47;;;13.70;99.90;;;;;;4991997;28;20526;-81
2022/09/27 13:23:59;;;;;;;4.60;2.42;;;13.70;99.90;;;;;;4965392;28;20050;-81
2022/09/27 13:26:50;;;;;;;5.72;2.50;;;13.80;99.90;;;;;;4945840;28;20607;-82
2022/09/27 13:29:26;;;;;;;5.35;2.80;;;13.80;99.90;;;;;;4983047;28;20581;-81
2022/09/27 13:32:19;;;;;;;5.15;2.58;;;13.80;99.90;;;;;;4986698;28;20048;-81
2022/09/27 13:35:17;;;;;;;6.25;2.90;;;13.80;99.90;;;;;;4951919;29;20102;-82
2022/09/27 13:37:50;;;;;;;5.45;2.70;;;13.80;99.90;;;;;;4962224;28;20055;-81